sensor_id;sensor_type;location;lat;lon;timestamp;temperature;humidity
8882;DHT22;4477;48.736;9.176;2023-01-01T12:36:18;10.10;99.90
8882;DHT22;4477;48.736;9.176;2023-01-01T12:59:42;20.50;55.10
8882;DHT22;4477;48.736;9.176;2023-01-01T15:49:21;21.40;53.00
8882;DHT22;4477;48.736;9.176;2023-01-01T15:51:48;11.10;91.30
8882;DHT22;4477;48.736;9.176;2023-01-01T15:54:16;11.00;91.60
8882;DHT22;4477;48.736;9.176;2023-01-01T17:10:48;10.90;92.10
8882;DHT22;4477;48.736;9.176;2023-01-01T17:13:15;9.70;99.90
8882;DHT22;4477;48.736;9.176;2023-01-01T17:15:41;9.50;99.90
8882;DHT22;4477;48.736;9.176;2023-01-01T17:18:08;9.30;99.90
8882;DHT22;4477;48.736;9.176;2023-01-01T17:20:36;9.10;99.90
8882;DHT22;4477;48.736;9.176;2023-01-01T17:23:02;9.00;99.90
8882;DHT22;4477;48.736;9.176;2023-01-01T17:25:31;9.00;99.90
8882;DHT22;4477;48.736;9.176;2023-01-01T17:47:37;9.10;99.90
8882;DHT22;4477;48.736;9.176;2023-01-01T17:50:04;9.20;99.90
8882;DHT22;4477;48.736;9.176;2023-01-01T18:02:24;9.10;99.90
8882;DHT22;4477;48.736;9.176;2023-01-01T18:07:18;8.30;99.90
8882;DHT22;4477;48.736;9.176;2023-01-01T18:09:45;8.00;99.90
8882;DHT22;4477;48.736;9.176;2023-01-01T18:12:11;7.90;99.90
8882;DHT22;4477;48.736;9.176;2023-01-01T18:17:07;7.70;99.90
8882;DHT22;4477;48.736;9.176;2023-01-01T18:19:34;7.50;99.90
8882;DHT22;4477;48.736;9.176;2023-01-01T18:22:03;7.30;99.90
8882;DHT22;4477;48.736;9.176;2023-01-01T18:24:30;7.20;99.90
8882;DHT22;4477;48.736;9.176;2023-01-01T18:27:00;7.20;99.90
8882;DHT22;4477;48.736;9.176;2023-01-01T18:29:27;7.30;99.90
8882;DHT22;4477;48.736;9.176;2023-01-01T18:31:53;7.30;99.90
8882;DHT22;4477;48.736;9.176;2023-01-01T18:34:21;7.30;99.90
8882;DHT22;4477;48.736;9.176;2023-01-01T18:36:48;7.30;99.90
8882;DHT22;4477;48.736;9.176;2023-01-01T18:39:20;7.30;99.90
8882;DHT22;4477;48.736;9.176;2023-01-01T18:42:22;7.30;99.90
8882;DHT22;4477;48.736;9.176;2023-01-01T18:44:51;7.30;99.90
8882;DHT22;4477;48.736;9.176;2023-01-01T18:47:18;7.20;99.90
8882;DHT22;4477;48.736;9.176;2023-01-01T18:49:48;7.20;99.90
8882;DHT22;4477;48.736;9.176;2023-01-01T18:52:20;7.20;99.90
8882;DHT22;4477;48.736;9.176;2023-01-01T18:54:51;7.20;99.90
8882;DHT22;4477;48.736;9.176;2023-01-01T18:57:22;7.10;99.90
8882;DHT22;4477;48.736;9.176;2023-01-01T18:59:49;7.20;99.90
8882;DHT22;4477;48.736;9.176;2023-01-01T19:22:25;7.10;99.90
8882;DHT22;4477;48.736;9.176;2023-01-01T19:24:54;8.50;99.90
8882;DHT22;4477;48.736;9.176;2023-01-01T19:27:22;8.90;99.90
8882;DHT22;4477;48.736;9.176;2023-01-01T19:29:50;9.20;99.90
8882;DHT22;4477;48.736;9.176;2023-01-01T19:32:17;9.50;99.90
8882;DHT22;4477;48.736;9.176;2023-01-01T19:34:45;9.80;99.90
8882;DHT22;4477;48.736;9.176;2023-01-01T20:11:36;10.10;99.90
8882;DHT22;4477;48.736;9.176;2023-01-01T20:14:04;8.50;99.90
8882;DHT22;4477;48.736;9.176;2023-01-01T20:16:31;8.30;99.90
8882;DHT22;4477;48.736;9.176;2023-01-01T20:18:59;8.30;99.90
8882;DHT22;4477;48.736;9.176;2023-01-01T20:21:25;8.20;99.90
8882;DHT22;4477;48.736;9.176;2023-01-01T20:24:10;8.30;99.90
8882;DHT22;4477;48.736;9.176;2023-01-01T20:26:37;8.40;99.90
8882;DHT22;4477;48.736;9.176;2023-01-01T20:29:05;8.40;99.90
8882;DHT22;4477;48.736;9.176;2023-01-01T20:31:48;8.40;99.90
8882;DHT22;4477;48.736;9.176;2023-01-01T20:34:15;8.40;99.90
8882;DHT22;4477;48.736;9.176;2023-01-01T20:36:42;8.50;99.90
8882;DHT22;4477;48.736;9.176;2023-01-01T20:39:27;8.50;99.90
8882;DHT22;4477;48.736;9.176;2023-01-01T20:41:54;8.60;99.90
8882;DHT22;4477;48.736;9.176;2023-01-01T20:44:22;8.70;99.90
8882;DHT22;4477;48.736;9.176;2023-01-01T20:46:49;8.80;99.90
8882;DHT22;4477;48.736;9.176;2023-01-01T20:49:16;8.80;99.90
8882;DHT22;4477;48.736;9.176;2023-01-01T20:51:43;9.00;99.90
8882;DHT22;4477;48.736;9.176;2023-01-01T20:54:10;9.20;99.90
8882;DHT22;4477;48.736;9.176;2023-01-01T20:56:37;9.20;99.30
8882;DHT22;4477;48.736;9.176;2023-01-01T20:59:04;9.40;98.60
8882;DHT22;4477;48.736;9.176;2023-01-01T21:01:32;9.70;97.40
